Time;durP1;ratioP1;P1;durP2;ratioP2;P2;SDS_P1;SDS_P2;PMS_P1;PMS_P2;Temp;Humidity;BMP_temperature;BMP_pressure;BME280_temperature;BME280_humidity;BME280_pressure;Samples;Min_cycle;Max_cycle;Signal;HPM_P1;HPM_P2
2022/06/08 00:00:19;;;;;;;0.40;0.30;;;14.50;99.90;;;;;;5054547;28;20449;-81
2022/06/08 00:02:55;;;;;;;0.60;0.60;;;14.40;99.90;;;;;;5054642;28;20414;-81
2022/06/08 00:05:22;;;;;;;0.40;0.30;;;14.40;99.90;;;;;;5054804;28;20434;-81
2022/06/08 00:07:48;;;;;;;0.40;0.33;;;14.40;99.90;;;;;;5054394;28;20953;-81
2022/06/08 00:10:15;;;;;;;0.50;0.40;;;14.40;99.90;;;;;;5054619;28;20457;-81
2022/06/08 00:12:42;;;;;;;2.17;0.50;;;14.40;99.90;;;;;;5054303;28;20430;-81
2022/06/08 00:15:10;;;;;;;0.50;0.50;;;14.40;99.90;;;;;;5054513;28;20482;-81
2022/06/08 00:17:38;;;;;;;0.40;0.30;;;14.40;99.90;;;;;;5054491;28;20481;-81
2022/06/08 00:20:09;;;;;;;0.40;0.40;;;14.40;99.90;;;;;;5054452;28;20449;-81
2022/06/08 00:22:36;;;;;;;0.50;0.40;;;14.40;99.90;;;;;;5054374;28;20430;-81
2022/06/08 00:25:03;;;;;;;0.30;0.30;;;14.30;99.90;;;;;;5054143;28;20488;-81
2022/06/08 00:27:30;;;;;;;1.07;0.40;;;14.30;99.90;;;;;;5053146;28;20445;-81
2022/06/08 00:29:56;;;;;;;0.30;0.30;;;14.30;99.90;;;;;;5054321;28;20458;-81
2022/06/08 00:32:23;;;;;;;0.50;0.43;;;14.30;99.90;;;;;;5054248;28;20457;-81
2022/06/08 00:34:50;;;;;;;1.83;0.40;;;14.30;99.90;;;;;;5054076;28;20493;-81
2022/06/08 00:37:19;;;;;;;3.80;0.40;;;14.30;99.90;;;;;;5054128;28;20457;-81
2022/06/08 00:39:46;;;;;;;2.43;0.60;;;14.30;99.90;;;;;;5053777;28;21039;-81
2022/06/08 00:42:16;;;;;;;0.30;0.30;;;14.30;99.90;;;;;;5054064;28;20438;-81
2022/06/08 00:44:45;;;;;;;0.40;0.40;;;14.20;99.90;;;;;;5053905;28;20465;-81
2022/06/08 00:47:16;;;;;;;1.00;0.40;;;14.20;99.90;;;;;;5053549;28;21004;-81
2022/06/08 00:49:47;;;;;;;0.40;0.40;;;14.20;99.90;;;;;;5053916;28;20430;-81
2022/06/08 00:52:15;;;;;;;0.50;0.30;;;14.20;99.90;;;;;;5053838;28;20452;-80
2022/06/08 00:54:47;;;;;;;0.83;0.37;;;14.20;99.90;;;;;;5053769;28;20468;-81
2022/06/08 00:57:17;;;;;;;0.47;0.40;;;14.20;99.90;;;;;;5053790;28;20442;-80
2022/06/08 00:59:49;;;;;;;1.07;0.47;;;14.20;99.90;;;;;;5053451;28;20937;-81
2022/06/08 01:02:16;;;;;;;0.50;0.43;;;14.20;99.90;;;;;;5053431;28;20430;-81
2022/06/08 01:04:43;;;;;;;0.30;0.27;;;14.20;99.90;;;;;;5053165;28;20868;-81
2022/06/08 01:07:18;;;;;;;0.50;0.43;;;14.20;99.90;;;;;;5053595;28;20442;-80
2022/06/08 01:09:47;;;;;;;1.17;0.40;;;14.20;99.90;;;;;;5053645;28;20441;-81
2022/06/08 01:12:18;;;;;;;0.40;0.40;;;14.10;99.90;;;;;;5053571;28;20442;-81
2022/06/08 01:14:45;;;;;;;0.50;0.50;;;14.10;99.90;;;;;;5053157;28;20458;-81
2022/06/08 01:17:15;;;;;;;0.40;0.30;;;14.10;99.90;;;;;;5053519;28;20433;-81
2022/06/08 01:19:46;;;;;;;0.30;0.30;;;14.10;99.90;;;;;;5053572;28;20799;-81
2022/06/08 01:22:16;;;;;;;2.17;0.40;;;14.20;99.90;;;;;;5053599;28;20450;-81
2022/06/08 01:24:45;;;;;;;1.27;0.40;;;14.10;99.90;;;;;;5052731;28;20458;-81
2022/06/08 01:27:32;;;;;;;0.40;0.30;;;14.10;99.90;;;;;;5053119;28;20804;-81
2022/06/08 01:30:19;;;;;;;0.60;0.40;;;14.00;99.90;;;;;;5053056;28;20932;-81
2022/06/08 01:33:21;;;;;;;0.70;0.70;;;14.00;99.90;;;;;;5052976;28;20800;-81
2022/06/08 01:36:03;;;;;;;0.50;0.50;;;14.00;99.90;;;;;;5035638;28;20462;-81
2022/06/08 01:38:39;;;;;;;0.33;0.33;;;14.00;99.90;;;;;;5052984;28;20414;-81
2022/06/08 01:41:32;;;;;;;0.77;0.47;;;13.90;99.90;;;;;;5053287;28;20473;-81
2022/06/08 01:44:09;;;;;;;1.00;0.53;;;13.90;99.90;;;;;;5053153;28;20484;-80
2022/06/08 01:46:42;;;;;;;0.57;0.40;;;13.90;99.90;;;;;;5052842;28;20833;-80
2022/06/08 01:49:24;;;;;;;0.63;0.40;;;13.90;99.90;;;;;;5053179;28;20441;-81
2022/06/08 01:52:10;;;;;;;1.90;0.67;;;13.80;99.90;;;;;;5053177;28;20430;-80
2022/06/08 01:54:58;;;;;;;0.70;0.50;;;13.80;99.90;;;;;;5053094;28;20472;-81
2022/06/08 01:57:40;;;;;;;1.23;0.50;;;13.80;99.90;;;;;;5052812;28;20432;-81
2022/06/08 02:00:10;;;;;;;1.27;0.53;;;13.70;99.90;;;;;;5053117;28;20441;-81
2022/06/08 02:02:44;;;;;;;0.30;0.30;;;13.70;99.90;;;;;;5052680;28;20437;-81
2022/06/08 02:05:17;;;;;;;0.40;0.30;;;13.70;99.90;;;;;;5053180;28;20501;-81
2022/06/08 02:07:49;;;;;;;0.40;0.40;;;13.70;99.90;;;;;;5053022;28;20426;-81
2022/06/08 02:10:24;;;;;;;0.40;0.40;;;13.60;99.90;;;;;;5053007;28;20814;-80
2022/06/08 02:12:54;;;;;;;0.40;0.30;;;13.70;99.90;;;;;;5053162;28;20414;-81
2022/06/08 02:15:24;;;;;;;0.73;0.40;;;13.60;99.90;;;;;;5052626;28;20797;-81
2022/06/08 02:17:54;;;;;;;0.40;0.40;;;13.60;99.90;;;;;;5052945;28;20430;-81
2022/06/08 02:20:24;;;;;;;0.70;0.70;;;13.50;99.90;;;;;;5052572;28;20957;-81
2022/06/08 02:22:55;;;;;;;0.50;0.40;;;13.50;99.90;;;;;;5052791;28;20430;-81
2022/06/08 02:25:29;;;;;;;0.60;0.40;;;13.50;99.90;;;;;;5052420;28;20497;-80
2022/06/08 02:28:03;;;;;;;0.40;0.40;;;13.50;99.90;;;;;;5052996;28;20446;-81
2022/06/08 02:30:34;;;;;;;1.07;0.67;;;13.50;99.90;;;;;;5052819;28;20535;-81
2022/06/08 02:35:53;;;;;;;0.40;0.30;;;13.50;99.90;;;;;;5052806;28;20422;-81
2022/06/08 02:38:24;;;;;;;0.80;0.40;;;13.40;99.90;;;;;;5052742;28;20438;-81
2022/06/08 02:40:57;;;;;;;0.50;0.40;;;13.40;99.90;;;;;;5052764;28;20434;-81
2022/06/08 02:43:30;;;;;;;0.57;0.57;;;13.40;99.90;;;;;;5052930;28;20469;-81
2022/06/08 02:46:02;;;;;;;0.77;0.50;;;13.30;99.90;;;;;;5052605;28;20819;-81
2022/06/08 02:48:29;;;;;;;0.40;0.30;;;13.40;99.90;;;;;;5052396;28;20937;-81
2022/06/08 02:50:57;;;;;;;0.50;0.40;;;13.40;99.90;;;;;;5054811;28;20445;-81
2022/06/08 02:53:50;;;;;;;0.50;0.50;;;13.40;99.90;;;;;;5055895;28;20469;-81
2022/06/08 02:56:32;;;;;;;0.60;0.60;;;13.30;99.90;;;;;;5056146;28;20461;-81
2022/06/08 02:59:05;;;;;;;0.63;0.43;;;13.30;99.90;;;;;;5056123;28;20434;-81
2022/06/08 03:01:37;;;;;;;0.80;0.50;;;13.30;99.90;;;;;;5056045;28;20453;-81
2022/06/08 03:04:11;;;;;;;0.90;0.90;;;13.20;99.90;;;;;;5055666;28;20446;-81
2022/06/08 03:06:45;;;;;;;2.00;0.50;;;13.20;99.90;;;;;;5055588;28;20992;-81
2022/06/08 03:09:16;;;;;;;1.60;0.40;;;13.20;99.90;;;;;;5055879;28;20425;-81
2022/06/08 03:11:46;;;;;;;0.40;0.40;;;13.20;99.90;;;;;;5055620;28;20481;-81
2022/06/08 03:14:15;;;;;;;0.40;0.40;;;13.20;99.90;;;;;;5055758;28;20465;-81
2022/06/08 03:16:52;;;;;;;0.40;0.30;;;13.10;99.90;;;;;;5055675;28;20418;-81
2022/06/08 03:19:19;;;;;;;0.40;0.33;;;13.10;99.90;;;;;;5055469;28;20410;-81
2022/06/08 03:21:46;;;;;;;0.50;0.40;;;13.10;99.90;;;;;;5055620;28;20434;-81
2022/06/08 03:24:12;;;;;;;0.30;0.30;;;13.10;99.90;;;;;;5055533;28;20474;-81
2022/06/08 03:26:42;;;;;;;0.40;0.40;;;13.10;99.90;;;;;;5055049;28;20516;-81
2022/06/08 03:29:10;;;;;;;0.50;0.50;;;13.10;99.90;;;;;;5055179;28;20442;-81
2022/06/08 03:31:37;;;;;;;0.53;0.30;;;13.10;99.90;;;;;;5055081;28;20453;-81
2022/06/08 03:34:04;;;;;;;0.90;0.50;;;13.10;99.90;;;;;;5055049;28;20465;-81
2022/06/08 03:36:31;;;;;;;0.40;0.40;;;13.10;99.90;;;;;;5054997;28;20964;-81
2022/06/08 03:38:57;;;;;;;0.30;0.30;;;13.10;99.90;;;;;;5055319;28;20457;-81
2022/06/08 03:41:24;;;;;;;0.70;0.40;;;13.20;99.90;;;;;;5055262;28;20457;-81
2022/06/08 03:43:51;;;;;;;0.30;0.30;;;13.20;99.90;;;;;;5054828;28;21004;-81
2022/06/08 03:46:19;;;;;;;0.40;0.30;;;13.30;99.90;;;;;;5054803;28;21027;-81
2022/06/08 03:48:46;;;;;;;0.80;0.60;;;13.30;99.90;;;;;;5054809;28;20969;-81
2022/06/08 03:51:14;;;;;;;0.70;0.40;;;13.40;99.90;;;;;;5054806;28;21040;-81
2022/06/08 03:53:52;;;;;;;0.90;0.40;;;13.40;99.90;;;;;;5054911;28;20492;-81
2022/06/08 03:56:20;;;;;;;0.40;0.40;;;13.40;99.90;;;;;;5055062;28;20497;-81
2022/06/08 03:58:48;;;;;;;0.40;0.33;;;13.40;99.90;;;;;;5054934;28;20453;-81
2022/06/08 04:01:15;;;;;;;0.50;0.40;;;13.40;99.90;;;;;;5054841;28;20440;-81
2022/06/08 04:03:43;;;;;;;0.50;0.50;;;13.30;99.90;;;;;;5054725;28;20474;-81
2022/06/08 04:06:10;;;;;;;0.40;0.40;;;13.40;99.90;;;;;;5054615;28;20482;-82
2022/06/08 04:08:38;;;;;;;1.53;1.43;;;13.40;99.90;;;;;;5054937;28;20441;-81
2022/06/08 04:11:05;;;;;;;0.30;0.30;;;13.50;99.90;;;;;;5054726;28;20465;-81
2022/06/08 04:13:32;;;;;;;0.40;0.40;;;13.50;99.90;;;;;;5054704;28;20476;-81
2022/06/08 04:16:01;;;;;;;0.57;0.53;;;13.60;99.90;;;;;;5054351;28;20933;-81
2022/06/08 04:18:28;;;;;;;0.53;0.53;;;13.60;99.90;;;;;;5054577;28;20548;-81
2022/06/08 04:20:59;;;;;;;0.50;0.50;;;13.60;99.90;;;;;;5054326;28;20957;-81
2022/06/08 04:23:29;;;;;;;0.40;0.33;;;13.60;99.90;;;;;;5054416;28;20466;-81
2022/06/08 04:25:56;;;;;;;0.40;0.30;;;13.60;99.90;;;;;;5054030;28;20497;-81
2022/06/08 04:28:24;;;;;;;0.60;0.40;;;13.50;99.90;;;;;;5055085;28;20462;-81
2022/06/08 04:30:51;;;;;;;0.40;0.40;;;13.50;99.90;;;;;;5054598;28;20454;-81
2022/06/08 04:33:18;;;;;;;0.40;0.40;;;13.50;99.90;;;;;;5054221;28;20469;-80
2022/06/08 04:35:46;;;;;;;0.40;0.37;;;13.50;99.90;;;;;;5054003;28;20936;-81
2022/06/08 04:38:14;;;;;;;0.40;0.30;;;13.50;99.90;;;;;;5053916;28;20442;-81
2022/06/08 04:40:42;;;;;;;0.30;0.30;;;13.50;99.90;;;;;;5054120;28;20456;-81
2022/06/08 04:43:09;;;;;;;0.70;0.40;;;13.50;99.90;;;;;;5054043;28;20484;-81
2022/06/08 04:45:36;;;;;;;0.40;0.40;;;13.60;99.90;;;;;;5053923;28;20461;-81
2022/06/08 04:48:04;;;;;;;5.10;0.40;;;13.60;99.90;;;;;;5053959;28;20450;-81
2022/06/08 04:50:31;;;;;;;0.50;0.40;;;13.60;99.90;;;;;;5054506;28;20845;-81
2022/06/08 04:52:58;;;;;;;0.57;0.50;;;13.70;99.90;;;;;;5053651;28;20454;-81
2022/06/08 04:55:27;;;;;;;1.43;0.60;;;13.70;99.90;;;;;;5053833;28;20458;-80
2022/06/08 04:57:54;;;;;;;0.40;0.40;;;13.70;99.90;;;;;;5053445;28;20454;-81
2022/06/08 05:00:22;;;;;;;0.97;0.50;;;13.80;99.90;;;;;;5054041;28;20848;-80
2022/06/08 05:02:50;;;;;;;0.40;0.40;;;13.90;99.90;;;;;;5053698;28;20454;-81
2022/06/08 05:05:20;;;;;;;0.30;0.30;;;13.90;99.90;;;;;;5053711;28;20446;-81
2022/06/08 05:07:47;;;;;;;0.30;0.20;;;14.00;99.90;;;;;;5053418;28;20458;-81
2022/06/08 05:10:14;;;;;;;0.30;0.30;;;14.00;99.90;;;;;;5053413;28;20822;-81
2022/06/08 05:12:43;;;;;;;0.33;0.30;;;14.10;99.90;;;;;;5053014;28;20453;-81
2022/06/08 05:15:14;;;;;;;0.37;0.37;;;14.00;99.90;;;;;;5053554;28;20454;-80
2022/06/08 05:17:41;;;;;;;2.20;0.40;;;14.00;99.90;;;;;;5053384;28;20457;-81
2022/06/08 05:20:09;;;;;;;0.90;0.30;;;14.00;99.90;;;;;;5053252;28;20453;-81
2022/06/08 05:22:37;;;;;;;0.40;0.37;;;14.00;99.90;;;;;;5053446;28;20449;-81
2022/06/08 05:25:05;;;;;;;0.30;0.30;;;14.00;99.90;;;;;;5053093;28;20547;-81
2022/06/08 05:27:32;;;;;;;0.37;0.30;;;14.00;99.90;;;;;;5053005;28;20852;-81
2022/06/08 05:30:01;;;;;;;0.50;0.50;;;13.90;99.90;;;;;;5053037;28;20457;-81
2022/06/08 05:32:27;;;;;;;0.80;0.40;;;14.00;99.90;;;;;;5053374;28;20445;-81
2022/06/08 05:34:54;;;;;;;0.30;0.30;;;14.00;99.90;;;;;;5053005;28;20468;-81
2022/06/08 05:37:21;;;;;;;0.40;0.33;;;14.00;99.90;;;;;;5053212;28;20461;-81
2022/06/08 05:39:48;;;;;;;0.70;0.30;;;14.00;99.90;;;;;;5053090;28;20437;-81
2022/06/08 05:42:14;;;;;;;0.80;0.80;;;14.00;99.90;;;;;;5053126;28;20454;-81
2022/06/08 05:44:41;;;;;;;0.40;0.40;;;14.10;99.90;;;;;;5053227;28;20457;-81
2022/06/08 05:47:09;;;;;;;1.00;0.47;;;14.10;99.90;;;;;;5052848;28;20484;-81
2022/06/08 05:49:36;;;;;;;0.30;0.30;;;14.20;99.90;;;;;;5052983;28;20440;-81
2022/06/08 05:52:06;;;;;;;0.60;0.50;;;14.20;99.90;;;;;;5053188;28;20441;-81
2022/06/08 05:54:33;;;;;;;0.40;0.33;;;14.20;99.90;;;;;;5053068;28;20466;-81
2022/06/08 05:57:00;;;;;;;0.50;0.40;;;14.20;99.90;;;;;;5053089;28;20450;-81
2022/06/08 05:59:27;;;;;;;0.37;0.30;;;14.20;99.90;;;;;;5052864;28;20445;-81
2022/06/08 06:01:54;;;;;;;0.60;0.33;;;14.20;99.90;;;;;;5053030;28;20453;-81
2022/06/08 06:04:23;;;;;;;0.60;0.50;;;14.30;99.90;;;;;;5053034;28;20472;-80
2022/06/08 06:06:49;;;;;;;0.40;0.30;;;14.30;99.90;;;;;;5052654;28;21022;-81
2022/06/08 06:09:19;;;;;;;0.30;0.30;;;14.40;99.90;;;;;;5052703;28;20450;-81
2022/06/08 06:11:46;;;;;;;0.30;0.30;;;14.40;99.90;;;;;;5052941;28;20449;-81
2022/06/08 06:14:13;;;;;;;1.43;0.50;;;14.40;99.90;;;;;;5053276;28;20478;-81
2022/06/08 06:16:40;;;;;;;0.50;0.50;;;14.40;99.90;;;;;;5052875;28;20450;-81
2022/06/08 06:19:06;;;;;;;0.30;0.30;;;14.40;99.90;;;;;;5052907;28;20791;-81
2022/06/08 06:21:35;;;;;;;0.50;0.33;;;14.50;99.90;;;;;;5052502;28;20450;-81
2022/06/08 06:24:04;;;;;;;0.30;0.30;;;14.50;99.90;;;;;;5052707;28;20469;-81
2022/06/08 06:26:31;;;;;;;0.43;0.30;;;14.50;99.90;;;;;;5055506;28;20539;-82
2022/06/08 06:28:58;;;;;;;0.40;0.40;;;14.40;99.90;;;;;;5056752;28;20437;-81
2022/06/08 06:31:29;;;;;;;0.70;0.40;;;14.40;99.90;;;;;;5058993;28;20438;-81
2022/06/08 06:33:56;;;;;;;0.40;0.30;;;14.40;99.90;;;;;;5061990;28;20449;-81
2022/06/08 06:36:23;;;;;;;0.40;0.40;;;14.40;99.90;;;;;;5065487;28;20437;-80
2022/06/08 06:38:52;;;;;;;0.50;0.40;;;14.40;99.90;;;;;;5059062;28;20429;-80
2022/06/08 06:41:19;;;;;;;0.60;0.50;;;14.40;99.90;;;;;;5056472;28;20537;-80
2022/06/08 06:43:46;;;;;;;0.80;0.70;;;14.40;99.90;;;;;;5056301;28;20465;-81
2022/06/08 06:46:13;;;;;;;0.60;0.43;;;14.40;99.90;;;;;;5056658;28;20460;-81
2022/06/08 06:48:40;;;;;;;0.40;0.30;;;14.50;99.90;;;;;;5055957;28;20481;-80
2022/06/08 06:51:08;;;;;;;0.40;0.40;;;14.60;99.90;;;;;;5055932;28;20918;-80
2022/06/08 06:53:35;;;;;;;0.40;0.30;;;14.60;99.90;;;;;;5056057;28;20465;-80
2022/06/08 06:56:04;;;;;;;0.47;0.37;;;14.50;99.90;;;;;;5055826;28;20434;-80
2022/06/08 06:58:31;;;;;;;0.40;0.30;;;14.60;99.90;;;;;;5055812;28;20430;-80
2022/06/08 07:00:57;;;;;;;0.40;0.30;;;14.60;99.90;;;;;;5055823;28;20417;-80
2022/06/08 07:03:24;;;;;;;0.50;0.40;;;14.70;99.90;;;;;;5055512;28;20461;-81
2022/06/08 07:05:51;;;;;;;0.30;0.30;;;14.90;99.90;;;;;;5055658;28;20433;-81
2022/06/08 07:08:18;;;;;;;0.30;0.30;;;15.00;99.90;;;;;;5055529;28;20481;-81
2022/06/08 07:11:32;;;;;;;0.50;0.40;;;15.20;99.90;;;;;;5055770;28;20811;-81
2022/06/08 07:13:33;;;;;;;0.37;0.30;;;15.30;99.90;;;;;;5055236;28;20980;-80
2022/06/08 07:16:00;;;;;;;1.57;0.70;;;15.50;99.90;;;;;;5055710;28;20454;-81
2022/06/08 07:18:27;;;;;;;0.30;0.30;;;15.60;99.90;;;;;;5055624;28;20446;-81
2022/06/08 07:20:54;;;;;;;0.30;0.30;;;15.80;99.90;;;;;;5055253;28;20449;-81
2022/06/08 07:23:22;;;;;;;3.03;0.40;;;16.00;99.90;;;;;;5055527;28;20470;-82
2022/06/08 07:25:49;;;;;;;0.40;0.40;;;16.30;99.90;;;;;;5055159;28;20489;-81
2022/06/08 07:28:16;;;;;;;0.40;0.30;;;16.40;99.90;;;;;;5055428;28;20507;-81
2022/06/08 07:30:44;;;;;;;0.40;0.30;;;16.50;99.90;;;;;;5055212;28;20842;-81
2022/06/08 07:33:11;;;;;;;2.10;0.80;;;16.60;99.90;;;;;;5055031;28;20480;-81
2022/06/08 07:35:37;;;;;;;0.40;0.40;;;16.80;99.90;;;;;;5054566;28;20453;-81
2022/06/08 07:38:04;;;;;;;1.70;0.40;;;16.90;99.90;;;;;;5055062;28;20438;-81
2022/06/08 07:40:31;;;;;;;0.40;0.30;;;17.30;99.90;;;;;;5055063;28;20438;-81
2022/06/08 07:42:58;;;;;;;0.40;0.40;;;17.90;99.90;;;;;;5055249;28;20523;-81
2022/06/08 07:45:25;;;;;;;0.73;0.50;;;18.70;99.90;;;;;;5055175;28;20450;-81
2022/06/08 07:50:38;;;;;;;0.50;0.40;;;20.20;99.90;;;;;;5054877;28;20816;-81
2022/06/08 07:53:05;;;;;;;0.40;0.40;;;20.70;99.90;;;;;;5055282;28;20842;-82
2022/06/08 07:55:32;;;;;;;0.83;0.53;;;21.00;99.90;;;;;;5054706;28;20449;-82
2022/06/08 07:57:58;;;;;;;0.40;0.40;;;21.80;99.90;;;;;;5054738;28;20487;-82
2022/06/08 08:00:26;;;;;;;0.40;0.30;;;21.90;99.90;;;;;;5054654;28;20434;-82
2022/06/08 08:02:54;;;;;;;0.60;0.40;;;22.20;99.90;;;;;;5054816;28;20619;-82
2022/06/08 08:05:22;;;;;;;0.55;0.30;;;22.20;99.90;;;;;;5054806;28;20207;-83
2022/06/08 08:07:50;;;;;;;0.40;0.32;;;22.60;99.90;;;;;;5054635;28;20226;-83
2022/06/08 08:10:21;;;;;;;0.93;0.40;;;22.90;99.90;;;;;;5054325;28;20658;-83
2022/06/08 08:12:48;;;;;;;0.63;0.40;;;23.30;99.90;;;;;;5054615;28;20198;-83
2022/06/08 08:15:17;;;;;;;0.50;0.40;;;23.40;99.90;;;;;;5054549;28;20206;-83
2022/06/08 08:17:44;;;;;;;3.22;0.50;;;23.70;99.90;;;;;;5054511;28;20234;-84
2022/06/08 08:20:15;;;;;;;0.70;0.60;;;23.90;99.90;;;;;;5054466;28;20549;-83
2022/06/08 08:22:42;;;;;;;0.52;0.52;;;24.40;99.90;;;;;;5054091;28;20191;-83
2022/06/08 08:25:11;;;;;;;1.25;0.50;;;24.70;99.90;;;;;;5054507;28;20240;-83
2022/06/08 08:27:38;;;;;;;1.55;0.50;;;24.70;99.90;;;;;;5054275;28;20223;-83
2022/06/08 08:30:06;;;;;;;0.40;0.40;;;25.30;99.90;;;;;;5054222;28;20210;-82
2022/06/08 08:32:33;;;;;;;0.45;0.45;;;25.40;99.90;;;;;;5054233;28;20209;-83
2022/06/08 08:35:00;;;;;;;0.85;0.43;;;25.40;99.90;;;;;;5054125;28;20218;-82
2022/06/08 08:37:28;;;;;;;0.50;0.50;;;25.30;99.90;;;;;;5054173;28;20203;-82
2022/06/08 08:39:56;;;;;;;0.60;0.57;;;25.60;99.90;;;;;;5053966;28;20662;-83
2022/06/08 08:42:24;;;;;;;0.60;0.40;;;25.40;99.90;;;;;;5054157;28;20242;-82
2022/06/08 08:44:52;;;;;;;0.70;0.40;;;25.50;99.90;;;;;;5053932;28;20729;-81
2022/06/08 08:47:32;;;;;;;0.50;0.50;;;25.50;98.70;;;;;;5053989;28;20230;-82
2022/06/08 08:50:02;;;;;;;0.40;0.40;;;25.50;98.00;;;;;;5055523;28;20247;-82
2022/06/08 08:52:41;;;;;;;0.50;0.50;;;25.90;97.30;;;;;;5054670;28;20218;-82
2022/06/08 08:55:27;;;;;;;0.50;0.50;;;25.30;96.70;;;;;;5053978;28;20206;-82
2022/06/08 08:58:02;;;;;;;1.40;0.50;;;24.70;97.70;;;;;;5053921;28;20180;-82
2022/06/08 09:00:37;;;;;;;0.47;0.40;;;24.40;98.90;;;;;;5053483;28;20187;-82
2022/06/08 09:03:21;;;;;;;0.40;0.35;;;23.90;97.00;;;;;;5053829;28;20232;-82
2022/06/08 09:05:51;;;;;;;0.40;0.40;;;23.80;98.30;;;;;;5053696;28;20250;-82
2022/06/08 09:08:22;;;;;;;0.47;0.47;;;23.70;99.30;;;;;;5053610;28;20701;-81
2022/06/08 09:10:50;;;;;;;0.50;0.47;;;23.50;99.60;;;;;;5054317;28;20211;-83
2022/06/08 09:13:22;;;;;;;0.65;0.40;;;23.40;99.20;;;;;;5053233;28;20219;-81
2022/06/08 09:15:52;;;;;;;0.50;0.40;;;23.60;99.90;;;;;;5053561;28;20201;-84
2022/06/08 09:18:29;;;;;;;0.60;0.50;;;23.30;99.90;;;;;;5053266;28;20221;-83
2022/06/08 09:20:56;;;;;;;0.40;0.40;;;23.40;99.90;;;;;;5053939;28;20535;-81
2022/06/08 09:23:36;;;;;;;0.60;0.40;;;23.70;99.90;;;;;;5053253;28;20214;-83
2022/06/08 09:26:07;;;;;;;0.40;0.40;;;23.80;99.90;;;;;;5053092;28;20233;-84
2022/06/08 09:28:35;;;;;;;0.50;0.50;;;23.80;99.40;;;;;;5052975;28;20214;-84
2022/06/08 09:31:02;;;;;;;0.38;0.35;;;23.80;98.30;;;;;;5053327;28;20580;-83
2022/06/08 09:33:34;;;;;;;0.40;0.40;;;23.60;98.00;;;;;;5053148;28;20227;-83
2022/06/08 09:36:05;;;;;;;1.15;0.57;;;23.50;98.70;;;;;;5053281;28;20238;-83
2022/06/08 09:38:39;;;;;;;0.50;0.50;;;23.50;98.50;;;;;;5053284;28;20265;-83
2022/06/08 09:41:15;;;;;;;0.40;0.30;;;23.70;99.10;;;;;;5053276;28;20190;-81
2022/06/08 09:44:01;;;;;;;0.40;0.40;;;23.70;99.90;;;;;;5053175;28;20219;-83
2022/06/08 09:52:34;;;;;;;0.40;0.40;;;23.00;98.90;;;;;;5053160;28;20187;-80
2022/06/08 09:55:14;;;;;;;0.40;0.37;;;22.90;99.00;;;;;;5052824;28;20230;-80
2022/06/08 09:57:44;;;;;;;1.87;0.40;;;22.70;99.90;;;;;;5053132;28;20199;-83
2022/06/08 10:00:21;;;;;;;0.57;0.40;;;22.70;99.50;;;;;;5056625;28;20552;-83
2022/06/08 10:03:01;;;;;;;0.50;0.40;;;22.80;99.60;;;;;;5057089;28;20280;-80
2022/06/08 10:05:38;;;;;;;0.40;0.30;;;22.80;98.80;;;;;;5057041;28;20197;-81
2022/06/08 10:08:19;;;;;;;0.50;0.40;;;22.70;98.80;;;;;;5057015;28;20206;-81
2022/06/08 10:10:55;;;;;;;0.40;0.40;;;22.80;98.80;;;;;;5057080;28;20244;-81
2022/06/08 10:13:30;;;;;;;0.63;0.60;;;23.00;99.90;;;;;;5056959;28;20226;-81
2022/06/08 10:16:03;;;;;;;0.57;0.40;;;23.20;97.90;;;;;;5056717;28;20189;-81
2022/06/08 10:18:36;;;;;;;3.42;0.40;;;23.30;96.80;;;;;;5056921;28;20187;-82
2022/06/08 10:21:10;;;;;;;0.40;0.40;;;23.40;95.00;;;;;;5056650;28;20187;-81
2022/06/08 10:23:41;;;;;;;0.40;0.40;;;23.40;95.80;;;;;;5056407;28;20309;-81
2022/06/08 10:26:16;;;;;;;0.52;0.40;;;23.50;97.30;;;;;;5056510;28;20227;-81
2022/06/08 10:28:47;;;;;;;0.60;0.40;;;23.50;95.20;;;;;;5057012;28;20276;-81
2022/06/08 10:31:19;;;;;;;0.40;0.40;;;23.50;93.10;;;;;;5056695;28;20187;-83
2022/06/08 10:33:53;;;;;;;0.40;0.40;;;23.50;94.30;;;;;;5056220;28;20226;-83
2022/06/08 10:36:21;;;;;;;0.35;0.30;;;23.60;94.70;;;;;;5057097;28;20259;-84
2022/06/08 10:38:48;;;;;;;0.40;0.40;;;23.40;93.00;;;;;;5055931;28;20206;-84
2022/06/08 10:44:32;;;;;;;0.40;0.30;;;23.30;92.70;;;;;;5078992;28;20759;-84
2022/06/08 10:47:18;;;;;;;0.40;0.40;;;23.40;92.40;;;;;;5072123;28;20194;-85
2022/06/08 10:49:53;;;;;;;0.40;0.30;;;23.50;90.40;;;;;;5056405;28;20222;-84
2022/06/08 10:52:30;;;;;;;0.50;0.30;;;23.40;91.10;;;;;;5056542;28;20304;-84
2022/06/08 10:55:33;;;;;;;0.70;0.30;;;23.30;90.10;;;;;;5055932;28;20714;-84
2022/06/08 10:58:07;;;;;;;0.95;0.32;;;23.50;88.40;;;;;;5056589;28;20550;-84
2022/06/08 11:01:04;;;;;;;0.40;0.30;;;23.80;88.30;;;;;;5056303;28;20195;-84
2022/06/08 11:03:56;;;;;;;0.40;0.30;;;24.20;86.80;;;;;;5056095;28;20230;-82
2022/06/08 11:07:03;;;;;;;0.35;0.30;;;24.50;81.50;;;;;;5056041;28;20194;-84
2022/06/08 11:09:51;;;;;;;0.47;0.43;;;24.60;82.30;;;;;;5055592;28;20222;-84
2022/06/08 11:12:30;;;;;;;0.30;0.30;;;24.60;84.60;;;;;;5054775;28;20198;-84
2022/06/08 11:15:01;;;;;;;0.35;0.30;;;24.50;84.50;;;;;;5055932;28;20254;-84
2022/06/08 11:17:32;;;;;;;0.40;0.35;;;24.30;82.60;;;;;;5055846;28;20649;-84
2022/06/08 11:20:04;;;;;;;0.40;0.30;;;24.20;82.10;;;;;;5055838;28;20194;-83
2022/06/08 11:22:34;;;;;;;0.40;0.40;;;24.00;83.50;;;;;;5055806;28;20195;-84
2022/06/08 11:25:04;;;;;;;0.50;0.40;;;23.90;83.00;;;;;;5055056;28;20238;-84
2022/06/08 11:27:33;;;;;;;0.30;0.30;;;23.90;87.20;;;;;;5055730;28;20202;-84
2022/06/08 11:30:02;;;;;;;0.40;0.40;;;24.00;87.30;;;;;;5055680;28;20559;-86
2022/06/08 11:33:01;;;;;;;0.40;0.30;;;24.10;83.70;;;;;;5055756;28;20294;-85
2022/06/08 11:35:50;;;;;;;0.40;0.40;;;24.00;82.60;;;;;;5055653;28;20587;-85
2022/06/08 11:38:21;;;;;;;0.30;0.30;;;23.80;83.40;;;;;;5055151;28;20182;-85
2022/06/08 11:40:48;;;;;;;0.40;0.32;;;23.60;85.90;;;;;;5055169;28;20282;-85
2022/06/08 11:43:33;;;;;;;0.40;0.40;;;23.60;83.20;;;;;;5055387;28;20226;-85
2022/06/08 11:46:02;;;;;;;0.47;0.35;;;23.80;83.30;;;;;;5055382;28;20245;-84
2022/06/08 11:48:31;;;;;;;0.40;0.30;;;23.90;80.10;;;;;;5055097;28;20218;-85
2022/06/08 11:51:01;;;;;;;0.40;0.30;;;23.90;80.80;;;;;;5055151;28;20205;-86
2022/06/08 11:53:30;;;;;;;0.40;0.30;;;23.90;82.30;;;;;;5054802;28;20219;-85
2022/06/08 11:56:09;;;;;;;0.30;0.30;;;23.90;80.90;;;;;;5054838;28;20578;-85
2022/06/08 11:58:37;;;;;;;0.40;0.35;;;23.80;83.60;;;;;;5055368;28;20335;-85
2022/06/08 12:01:11;;;;;;;0.40;0.38;;;23.80;83.10;;;;;;5055705;28;20566;-85
2022/06/08 12:03:42;;;;;;;0.40;0.35;;;23.70;82.70;;;;;;5055197;28;20226;-84
2022/06/08 12:06:18;;;;;;;0.30;0.30;;;23.60;83.90;;;;;;5054932;28;20191;-85
2022/06/08 12:08:48;;;;;;;0.47;0.40;;;23.60;83.50;;;;;;5054739;28;20642;-84
2022/06/08 12:11:17;;;;;;;0.40;0.40;;;23.40;81.50;;;;;;5054783;28;20191;-85
2022/06/08 12:13:53;;;;;;;0.37;0.30;;;23.30;83.00;;;;;;5054472;28;20716;-85
2022/06/08 12:16:25;;;;;;;0.40;0.30;;;23.20;80.60;;;;;;5054800;28;20248;-85
2022/06/08 12:18:58;;;;;;;0.70;0.43;;;23.10;81.90;;;;;;5054783;28;20270;-85
2022/06/08 12:21:31;;;;;;;0.37;0.30;;;23.00;81.10;;;;;;5055146;28;20205;-84
2022/06/08 12:24:03;;;;;;;0.57;0.40;;;23.00;84.50;;;;;;5054526;28;20215;-84
2022/06/08 12:26:41;;;;;;;0.40;0.40;;;23.00;82.80;;;;;;5054158;28;20238;-84
2022/06/08 12:29:23;;;;;;;2.80;0.70;;;23.00;83.60;;;;;;5054159;28;20213;-85
2022/06/08 12:32:16;;;;;;;0.60;0.43;;;23.20;86.30;;;;;;5054424;28;20191;-84
2022/06/08 12:34:45;;;;;;;0.55;0.40;;;23.30;84.50;;;;;;5055064;28;20226;-85
2022/06/08 12:37:34;;;;;;;0.50;0.40;;;23.30;83.40;;;;;;5054604;28;20213;-85
2022/06/08 12:40:31;;;;;;;0.40;0.30;;;23.30;82.50;;;;;;5054313;28;20194;-85
2022/06/08 12:43:19;;;;;;;0.40;0.37;;;23.30;82.20;;;;;;5053927;28;20298;-85
2022/06/08 12:46:06;;;;;;;0.40;0.40;;;23.20;80.30;;;;;;5054240;28;20191;-85
2022/06/08 12:48:44;;;;;;;0.40;0.40;;;23.20;80.80;;;;;;5053812;28;20214;-85
2022/06/08 12:51:35;;;;;;;0.50;0.40;;;23.10;84.60;;;;;;5053917;28;20211;-85
2022/06/08 12:54:04;;;;;;;0.40;0.35;;;23.10;85.10;;;;;;5054059;28;20219;-85
2022/06/08 12:56:31;;;;;;;0.40;0.40;;;23.10;83.10;;;;;;5054052;28;20202;-85
2022/06/08 12:58:58;;;;;;;0.30;0.30;;;23.10;83.70;;;;;;5054019;28;20202;-85
2022/06/08 13:01:27;;;;;;;1.07;0.60;;;23.10;85.50;;;;;;5053911;28;20289;-84
2022/06/08 13:03:55;;;;;;;0.52;0.52;;;23.00;85.90;;;;;;5053931;28;20214;-85
2022/06/08 13:06:24;;;;;;;0.50;0.40;;;22.90;82.50;;;;;;5053819;28;20656;-84
2022/06/08 13:08:52;;;;;;;0.40;0.30;;;22.80;84.30;;;;;;5053707;28;20214;-85
2022/06/08 13:11:23;;;;;;;1.40;0.57;;;22.80;86.80;;;;;;5053836;28;20210;-84
2022/06/08 13:13:51;;;;;;;1.43;0.40;;;22.80;86.40;;;;;;5053650;28;20233;-85
2022/06/08 13:16:21;;;;;;;0.40;0.30;;;22.80;83.30;;;;;;5053286;28;20293;-84
2022/06/08 13:18:49;;;;;;;0.40;0.33;;;22.80;83.80;;;;;;5053980;28;20183;-84
2022/06/08 13:21:17;;;;;;;0.50;0.50;;;22.80;85.60;;;;;;5053717;28;20199;-85
2022/06/08 13:23:44;;;;;;;0.40;0.40;;;22.80;86.30;;;;;;5053211;28;20710;-84